DCA - Ronald Reagan Washington Ntl

Pirep is a free, collaborative database of all public and private airports located within the United States. All pilots are welcome to contribute, edit, and improve any airport they have local knowledge about, no registration required.
This airport is temporarily locked. Edits may not be made while locked.
Are you familiar with this airport? Help out other pilots by adding your local knowledge.
Uploaded photos will be licensed under a CC BY-SA 4.0 license. Please only upload photos you have the rights to use.
Tags
Public
Undocu­mented
METAR / TAF
Edit Tags
Food
Camping
Lodging
Car Rental
Bicycles
Swimming
Golfing
Fishing
Hot Springs
Museum
Flying Clubs
Airpark
Upcoming Events
No upcoming events. Is anything happening here soon?
*
*
*

Where exactly on/near the airport is this event taking place?

Is there a webpage with more information for this event?

Who should be contacted for more information?

What is this event all about?

Repeat every
Description
Transient Parking
Fuel Location
Landing & Tie-down Fees
Crew Car Availability
Flying Clubs
WiFi Access
Airport Statistics
Location: Washington, VA
Elevation: 14ft
Sectional: Washington
Activation date: Mar 1941
Fuel: A (prices)
Runway 01/19: 7,169ft
Runway 15/33: 5,204ft
Runway 04/22: 5,000ft
Runway 19X: 0ft
Access: Open to the public
Current Weather — VFR
  • Weather data is strictly informational and not for flight planning purposes.
  • METAR
    2024-04-24 06:52:00 EDT
    Ceiling Wind Temperature Dewpoint Weather Visbility
    14,000ft 220° @ 6kt 60°F 44°F N/A 10SM
    Clouds: Scattered @ 8,000ft, Scattered @ 11,000ft, Broken @ 14,000ft
    Raw: KDCA 241052Z 22006KT 10SM SCT080 SCT110 BKN140 16/07 A2987 RMK AO2 SLP115 T01560067
  • TAF
    2024-04-24 08:00:00 EDT – 2024-04-24 10:00:00 EDT
    Ceiling Wind Weather Visbility
    5,000ft 210° @ 4kt N/A 6SM
    Clouds: Broken @ 5,000ft, Overcast @ 15,000ft
    Raw: KDCA 241120Z 2412/2518 21004KT P6SM BKN050 OVC150 FM241400 29009G17KT P6SM VCSH BKN035 OVC100 FM241700 30014G24KT P6SM SCT050 BKN100 FM250100 32009KT P6SM FEW200 FM250800 02012KT P6SM BKN100
  • TAF
    2024-04-24 10:00:00 EDT – 2024-04-24 13:00:00 EDT
    Ceiling Wind Weather Visbility
    3,500ft 290° @ 9kt, gusts 17kt Showers in vicinity 6SM
    Clouds: Broken @ 3,500ft, Overcast @ 10,000ft
    Raw: KDCA 241120Z 2412/2518 21004KT P6SM BKN050 OVC150 FM241400 29009G17KT P6SM VCSH BKN035 OVC100 FM241700 30014G24KT P6SM SCT050 BKN100 FM250100 32009KT P6SM FEW200 FM250800 02012KT P6SM BKN100
  • TAF
    2024-04-24 13:00:00 EDT – 2024-04-24 21:00:00 EDT
    Ceiling Wind Weather Visbility
    10,000ft 300° @ 14kt, gusts 24kt N/A 6SM
    Clouds: Scattered @ 5,000ft, Broken @ 10,000ft
    Raw: KDCA 241120Z 2412/2518 21004KT P6SM BKN050 OVC150 FM241400 29009G17KT P6SM VCSH BKN035 OVC100 FM241700 30014G24KT P6SM SCT050 BKN100 FM250100 32009KT P6SM FEW200 FM250800 02012KT P6SM BKN100
  • TAF
    2024-04-24 21:00:00 EDT – 2024-04-25 04:00:00 EDT
    Ceiling Wind Weather Visbility
    Sky clear 320° @ 9kt N/A 6SM
    Clouds: Few @ 20,000ft
    Raw: KDCA 241120Z 2412/2518 21004KT P6SM BKN050 OVC150 FM241400 29009G17KT P6SM VCSH BKN035 OVC100 FM241700 30014G24KT P6SM SCT050 BKN100 FM250100 32009KT P6SM FEW200 FM250800 02012KT P6SM BKN100
  • TAF
    2024-04-25 04:00:00 EDT – 2024-04-25 14:00:00 EDT
    Ceiling Wind Weather Visbility
    10,000ft 20° @ 12kt N/A 6SM
    Clouds: Broken @ 10,000ft
    Raw: KDCA 241120Z 2412/2518 21004KT P6SM BKN050 OVC150 FM241400 29009G17KT P6SM VCSH BKN035 OVC100 FM241700 30014G24KT P6SM SCT050 BKN100 FM250100 32009KT P6SM FEW200 FM250800 02012KT P6SM BKN100
Click/tap to add an annotation marker to the map
Airport Webcams
No webcams added yet.
Direct links to live image URLs will be displayed inline on this page. URLs to separate webpages will be linked to.
URL:
Direct links to live image URLs will be displayed inline on this page. URLs to separate webpages will be linked to.
URL:
Remarks
  • Rwy 06 +53 ft trees 175 ft r @ thr.
  • Lgt fm vehicle parking lot lctd 1000 ft sw of rwy 01 could give false indications of being part of rwy 01 apch lgt sys drg periods of reduced vis & low ceilings.
  • Form 150r credit card for all rqrd svcs. no mil facs.
  • Twy k ends at gate 5.
  • Flocks of birds on & invof arpt; fqt gull & geese & duck populations ab over adj river areas.
Comments
Leave a comment What was your experience like at this airport?